sensor_id;sensor_type;location;lat;lon;timestamp;pressure;altitude;pressure_sealevel;temperature;humidity
65718;BME280;52445;52.466;-1.016;2023-02-16T00:01:51;100645.91;;;7.38;75.27
65718;BME280;52445;52.466;-1.016;2023-02-16T00:04:23;100636.47;;;7.40;75.43
65718;BME280;52445;52.466;-1.016;2023-02-16T00:06:51;100630.44;;;7.38;76.54
65718;BME280;52445;52.466;-1.016;2023-02-16T00:09:19;100632.16;;;7.39;75.22
65718;BME280;52445;52.466;-1.016;2023-02-16T00:11:46;100627.00;;;7.39;75.77
65718;BME280;52445;52.466;-1.016;2023-02-16T00:14:35;100635.59;;;7.38;76.37
65718;BME280;52445;52.466;-1.016;2023-02-16T00:17:03;100641.59;;;7.39;75.94
65718;BME280;52445;52.466;-1.016;2023-02-16T00:19:36;100637.31;;;7.39;76.20
65718;BME280;52445;52.466;-1.016;2023-02-16T00:22:04;100629.59;;;7.39;75.27
65718;BME280;52445;52.466;-1.016;2023-02-16T00:24:31;100638.22;;;7.40;76.22
65718;BME280;52445;52.466;-1.016;2023-02-16T00:26:58;100625.28;;;7.38;75.79
65718;BME280;52445;52.466;-1.016;2023-02-16T00:29:31;100620.16;;;7.40;74.93
65718;BME280;52445;52.466;-1.016;2023-02-16T00:32:01;100615.88;;;7.40;75.76
65718;BME280;52445;52.466;-1.016;2023-02-16T00:37:07;100618.47;;;7.42;75.39
65718;BME280;52445;52.466;-1.016;2023-02-16T00:39:35;100620.19;;;7.41;76.23
65718;BME280;52445;52.466;-1.016;2023-02-16T00:42:05;100609.03;;;7.42;75.27
65718;BME280;52445;52.466;-1.016;2023-02-16T00:44:35;100607.34;;;7.43;76.54
65718;BME280;52445;52.466;-1.016;2023-02-16T00:49:48;100612.50;;;7.44;75.13
65718;BME280;52445;52.466;-1.016;2023-02-16T00:55:00;100602.19;;;7.44;76.10
65718;BME280;52445;52.466;-1.016;2023-02-16T00:57:31;100604.81;;;7.46;75.33
65718;BME280;52445;52.466;-1.016;2023-02-16T01:00:05;100609.09;;;7.45;76.94
65718;BME280;52445;52.466;-1.016;2023-02-16T01:02:32;100608.25;;;7.46;75.25
65718;BME280;52445;52.466;-1.016;2023-02-16T01:04:59;100591.91;;;7.46;75.33
65718;BME280;52445;52.466;-1.016;2023-02-16T01:07:25;100598.88;;;7.49;75.49
65718;BME280;52445;52.466;-1.016;2023-02-16T01:10:12;100588.56;;;7.49;75.71
65718;BME280;52445;52.466;-1.016;2023-02-16T01:12:59;100582.56;;;7.50;75.37
65718;BME280;52445;52.466;-1.016;2023-02-16T01:15:26;100583.41;;;7.50;75.77
65718;BME280;52445;52.466;-1.016;2023-02-16T01:17:53;100581.66;;;7.49;75.29
65718;BME280;52445;52.466;-1.016;2023-02-16T01:20:22;100581.69;;;7.51;75.63
65718;BME280;52445;52.466;-1.016;2023-02-16T01:22:51;100586.00;;;7.52;75.54
65718;BME280;52445;52.466;-1.016;2023-02-16T01:25:20;100586.88;;;7.52;75.28
65718;BME280;52445;52.466;-1.016;2023-02-16T01:27:49;100580.84;;;7.52;76.35
65718;BME280;52445;52.466;-1.016;2023-02-16T01:30:19;100589.50;;;7.54;76.15
65718;BME280;52445;52.466;-1.016;2023-02-16T01:32:48;100594.66;;;7.54;75.52
65718;BME280;52445;52.466;-1.016;2023-02-16T01:35:25;100585.19;;;7.53;75.48
65718;BME280;52445;52.466;-1.016;2023-02-16T01:37:55;100585.22;;;7.56;75.67
65718;BME280;52445;52.466;-1.016;2023-02-16T01:40:43;100573.97;;;7.51;75.72
65718;BME280;52445;52.466;-1.016;2023-02-16T01:43:20;100579.19;;;7.54;75.62
65718;BME280;52445;52.466;-1.016;2023-02-16T01:46:02;100584.38;;;7.55;76.55
65718;BME280;52445;52.466;-1.016;2023-02-16T01:48:31;100574.00;;;7.52;76.50
65718;BME280;52445;52.466;-1.016;2023-02-16T01:54:12;100585.19;;;7.53;75.57
65718;BME280;52445;52.466;-1.016;2023-02-16T01:56:49;100577.47;;;7.56;75.76
65718;BME280;52445;52.466;-1.016;2023-02-16T01:59:30;100580.91;;;7.55;76.31
65718;BME280;52445;52.466;-1.016;2023-02-16T02:02:02;100568.94;;;7.57;76.54
65718;BME280;52445;52.466;-1.016;2023-02-16T02:07:05;100559.44;;;7.56;75.95
65718;BME280;52445;52.466;-1.016;2023-02-16T02:09:38;100552.63;;;7.58;75.31
65718;BME280;52445;52.466;-1.016;2023-02-16T02:15:06;100539.72;;;7.58;75.11
65718;BME280;52445;52.466;-1.016;2023-02-16T02:17:34;100539.72;;;7.58;74.60
65718;BME280;52445;52.466;-1.016;2023-02-16T02:33:53;100522.28;;;7.44;74.79
65718;BME280;52445;52.466;-1.016;2023-02-16T02:41:50;100515.34;;;7.40;73.76
65718;BME280;52445;52.466;-1.016;2023-02-16T02:44:40;100508.53;;;7.42;75.07
65718;BME280;52445;52.466;-1.016;2023-02-16T02:47:08;100499.88;;;7.40;74.02
65718;BME280;52445;52.466;-1.016;2023-02-16T02:49:34;100495.59;;;7.39;75.13
65718;BME280;52445;52.466;-1.016;2023-02-16T02:52:01;100491.22;;;7.35;74.29
65718;BME280;52445;52.466;-1.016;2023-02-16T02:54:30;100486.13;;;7.38;73.69
65718;BME280;52445;52.466;-1.016;2023-02-16T02:57:32;100482.63;;;7.36;74.52
65718;BME280;52445;52.466;-1.016;2023-02-16T03:00:37;100486.06;;;7.35;74.02
65718;BME280;52445;52.466;-1.016;2023-02-16T03:03:12;100481.75;;;7.34;74.57
65718;BME280;52445;52.466;-1.016;2023-02-16T03:05:43;100477.47;;;7.36;74.52
65718;BME280;52445;52.466;-1.016;2023-02-16T03:08:14;100468.03;;;7.35;74.28
65718;BME280;52445;52.466;-1.016;2023-02-16T03:10:49;100469.78;;;7.38;74.42
65718;BME280;52445;52.466;-1.016;2023-02-16T03:13:41;100467.19;;;7.36;73.80
65718;BME280;52445;52.466;-1.016;2023-02-16T03:16:13;100460.34;;;7.38;73.95
65718;BME280;52445;52.466;-1.016;2023-02-16T03:18:42;100455.19;;;7.38;74.57
65718;BME280;52445;52.466;-1.016;2023-02-16T03:21:30;100452.63;;;7.38;74.97
65718;BME280;52445;52.466;-1.016;2023-02-16T03:24:23;100444.03;;;7.39;74.10
65718;BME280;52445;52.466;-1.016;2023-02-16T03:27:14;100443.19;;;7.40;74.72
65718;BME280;52445;52.466;-1.016;2023-02-16T03:30:03;100439.72;;;7.38;74.26
65718;BME280;52445;52.466;-1.016;2023-02-16T03:32:31;100434.56;;;7.38;73.90
65718;BME280;52445;52.466;-1.016;2023-02-16T03:34:57;100427.69;;;7.37;73.61
65718;BME280;52445;52.466;-1.016;2023-02-16T03:37:24;100427.72;;;7.40;74.69
65718;BME280;52445;52.466;-1.016;2023-02-16T03:39:51;100419.97;;;7.39;74.73
65718;BME280;52445;52.466;-1.016;2023-02-16T03:42:37;100408.81;;;7.38;73.59
65718;BME280;52445;52.466;-1.016;2023-02-16T03:45:04;100405.31;;;7.35;73.83
65718;BME280;52445;52.466;-1.016;2023-02-16T03:47:31;100406.19;;;7.35;74.95
65718;BME280;52445;52.466;-1.016;2023-02-16T03:49:57;100402.72;;;7.35;73.99
65718;BME280;52445;52.466;-1.016;2023-02-16T03:52:24;100403.59;;;7.35;73.54
65718;BME280;52445;52.466;-1.016;2023-02-16T03:54:50;100398.38;;;7.32;74.91
65718;BME280;52445;52.466;-1.016;2023-02-16T03:57:17;100398.31;;;7.26;73.90
65718;BME280;52445;52.466;-1.016;2023-02-16T03:59:43;100388.81;;;7.25;75.29
65718;BME280;52445;52.466;-1.016;2023-02-16T04:02:10;100397.47;;;7.27;74.21
65718;BME280;52445;52.466;-1.016;2023-02-16T04:04:37;100397.31;;;7.19;74.99
65718;BME280;52445;52.466;-1.016;2023-02-16T04:07:03;100398.25;;;7.23;75.63
65718;BME280;52445;52.466;-1.016;2023-02-16T04:09:30;100394.72;;;7.17;75.60
65718;BME280;52445;52.466;-1.016;2023-02-16T04:11:56;100381.84;;;7.16;74.77
65718;BME280;52445;52.466;-1.016;2023-02-16T04:14:43;100391.19;;;7.12;75.05
65718;BME280;52445;52.466;-1.016;2023-02-16T04:17:09;100382.63;;;7.13;74.94
65718;BME280;52445;52.466;-1.016;2023-02-16T04:19:36;100370.50;;;7.06;75.65
65718;BME280;52445;52.466;-1.016;2023-02-16T04:22:03;100373.81;;;6.99;76.64
65718;BME280;52445;52.466;-1.016;2023-02-16T04:24:29;100378.97;;;6.99;76.02
65718;BME280;52445;52.466;-1.016;2023-02-16T04:26:56;100371.28;;;7.02;75.62
65718;BME280;52445;52.466;-1.016;2023-02-16T04:29:22;100374.84;;;7.09;74.78
65718;BME280;52445;52.466;-1.016;2023-02-16T04:31:49;100371.38;;;7.08;75.72
65718;BME280;52445;52.466;-1.016;2023-02-16T04:34:16;100374.81;;;7.07;74.99
65718;BME280;52445;52.466;-1.016;2023-02-16T04:36:42;100374.84;;;7.09;75.79
65718;BME280;52445;52.466;-1.016;2023-02-16T04:39:09;100374.84;;;7.09;76.20
65718;BME280;52445;52.466;-1.016;2023-02-16T04:41:35;100367.13;;;7.09;75.79
65718;BME280;52445;52.466;-1.016;2023-02-16T04:44:02;100375.69;;;7.09;75.40
65718;BME280;52445;52.466;-1.016;2023-02-16T04:46:28;100380.91;;;7.12;74.72
65718;BME280;52445;52.466;-1.016;2023-02-16T04:48:56;100368.81;;;7.08;76.03
65718;BME280;52445;52.466;-1.016;2023-02-16T04:51:23;100372.22;;;7.07;75.73
65718;BME280;52445;52.466;-1.016;2023-02-16T04:53:50;100364.56;;;7.10;76.20
65718;BME280;52445;52.466;-1.016;2023-02-16T04:56:16;100362.00;;;7.10;76.20
65718;BME280;52445;52.466;-1.016;2023-02-16T04:58:43;100355.06;;;7.07;77.03
65718;BME280;52445;52.466;-1.016;2023-02-16T05:01:18;100367.16;;;7.13;75.93
65718;BME280;52445;52.466;-1.016;2023-02-16T05:03:44;100358.63;;;7.14;76.49
65718;BME280;52445;52.466;-1.016;2023-02-16T05:06:11;100355.25;;;7.18;76.38
65718;BME280;52445;52.466;-1.016;2023-02-16T05:08:38;100364.72;;;7.21;75.43
65718;BME280;52445;52.466;-1.016;2023-02-16T05:11:04;100351.81;;;7.19;76.62
65718;BME280;52445;52.466;-1.016;2023-02-16T05:13:51;100357.75;;;7.14;75.75
65718;BME280;52445;52.466;-1.016;2023-02-16T05:16:37;100356.09;;;7.19;76.32
65718;BME280;52445;52.466;-1.016;2023-02-16T05:19:04;100351.00;;;7.22;75.38
65718;BME280;52445;52.466;-1.016;2023-02-16T05:21:30;100353.59;;;7.24;76.20
65718;BME280;52445;52.466;-1.016;2023-02-16T05:23:59;100341.56;;;7.23;76.09
65718;BME280;52445;52.466;-1.016;2023-02-16T05:26:27;100339.88;;;7.25;76.53
65718;BME280;52445;52.466;-1.016;2023-02-16T05:28:54;100338.97;;;7.21;76.42
65718;BME280;52445;52.466;-1.016;2023-02-16T05:31:22;100333.09;;;7.30;76.14
65718;BME280;52445;52.466;-1.016;2023-02-16T05:33:49;100327.91;;;7.27;76.46
65718;BME280;52445;52.466;-1.016;2023-02-16T05:36:16;100328.78;;;7.30;75.67
65718;BME280;52445;52.466;-1.016;2023-02-16T05:38:42;100327.13;;;7.32;75.90
65718;BME280;52445;52.466;-1.016;2023-02-16T05:41:10;100331.44;;;7.35;75.51
65718;BME280;52445;52.466;-1.016;2023-02-16T05:43:36;100332.22;;;7.29;76.50
65718;BME280;52445;52.466;-1.016;2023-02-16T05:46:07;100333.16;;;7.36;77.27
65718;BME280;52445;52.466;-1.016;2023-02-16T05:48:34;100331.50;;;7.38;76.99
65718;BME280;52445;52.466;-1.016;2023-02-16T05:51:00;100326.34;;;7.38;75.86
65718;BME280;52445;52.466;-1.016;2023-02-16T05:53:28;100310.88;;;7.38;75.69
65718;BME280;52445;52.466;-1.016;2023-02-16T05:55:54;100309.19;;;7.40;76.09
65718;BME280;52445;52.466;-1.016;2023-02-16T05:58:21;100307.50;;;7.42;76.85
65718;BME280;52445;52.466;-1.016;2023-02-16T06:00:48;100310.09;;;7.44;77.68
65718;BME280;52445;52.466;-1.016;2023-02-16T06:03:14;100299.78;;;7.44;77.20
65718;BME280;52445;52.466;-1.016;2023-02-16T06:05:41;100309.31;;;7.50;76.02
65718;BME280;52445;52.466;-1.016;2023-02-16T06:08:08;100307.59;;;7.49;76.78
65718;BME280;52445;52.466;-1.016;2023-02-16T06:10:34;100305.91;;;7.51;77.58
65718;BME280;52445;52.466;-1.016;2023-02-16T06:13:01;100308.50;;;7.52;76.58
65718;BME280;52445;52.466;-1.016;2023-02-16T06:15:28;100307.59;;;7.49;76.95
65718;BME280;52445;52.466;-1.016;2023-02-16T06:17:54;100300.78;;;7.54;78.02
65718;BME280;52445;52.466;-1.016;2023-02-16T06:20:21;100304.25;;;7.56;77.11
65718;BME280;52445;52.466;-1.016;2023-02-16T06:22:47;100298.25;;;7.55;76.58
65718;BME280;52445;52.466;-1.016;2023-02-16T06:25:14;100303.38;;;7.54;76.87
65718;BME280;52445;52.466;-1.016;2023-02-16T06:27:41;100299.97;;;7.56;76.99
65718;BME280;52445;52.466;-1.016;2023-02-16T06:30:07;100287.16;;;7.61;77.31
65718;BME280;52445;52.466;-1.016;2023-02-16T06:32:34;100290.53;;;7.60;76.93
65718;BME280;52445;52.466;-1.016;2023-02-16T06:35:01;100281.94;;;7.58;77.30
65718;BME280;52445;52.466;-1.016;2023-02-16T06:37:27;100287.09;;;7.58;77.24
65718;BME280;52445;52.466;-1.016;2023-02-16T06:39:54;100281.09;;;7.59;78.13
65718;BME280;52445;52.466;-1.016;2023-02-16T06:42:21;100280.22;;;7.60;77.84
65718;BME280;52445;52.466;-1.016;2023-02-16T06:44:47;100275.06;;;7.57;78.79
65718;BME280;52445;52.466;-1.016;2023-02-16T06:47:14;100266.53;;;7.61;78.61
65718;BME280;52445;52.466;-1.016;2023-02-16T06:49:40;100271.63;;;7.58;79.03
65718;BME280;52445;52.466;-1.016;2023-02-16T06:52:07;100268.19;;;7.59;79.14
65718;BME280;52445;52.466;-1.016;2023-02-16T06:54:34;100264.75;;;7.60;78.33
65718;BME280;52445;52.466;-1.016;2023-02-16T06:57:00;100270.78;;;7.61;78.18
65718;BME280;52445;52.466;-1.016;2023-02-16T06:59:27;100261.28;;;7.55;79.07
65718;BME280;52445;52.466;-1.016;2023-02-16T07:01:54;100278.53;;;7.61;78.61
65718;BME280;52445;52.466;-1.016;2023-02-16T07:04:20;100269.13;;;7.63;79.80
65718;BME280;52445;52.466;-1.016;2023-02-16T07:06:47;100268.25;;;7.62;78.94
65718;BME280;52445;52.466;-1.016;2023-02-16T07:09:14;100282.06;;;7.67;79.83
65718;BME280;52445;52.466;-1.016;2023-02-16T07:11:40;100280.31;;;7.66;80.29
65718;BME280;52445;52.466;-1.016;2023-02-16T07:14:07;100262.31;;;7.69;79.68
65718;BME280;52445;52.466;-1.016;2023-02-16T07:16:33;100266.59;;;7.67;80.46
65718;BME280;52445;52.466;-1.016;2023-02-16T07:19:00;100266.59;;;7.67;80.75
65718;BME280;52445;52.466;-1.016;2023-02-16T07:21:27;100278.72;;;7.75;79.26
65718;BME280;52445;52.466;-1.016;2023-02-16T07:23:53;100285.56;;;7.72;80.40
65718;BME280;52445;52.466;-1.016;2023-02-16T07:26:20;100274.50;;;7.80;79.33
65718;BME280;52445;52.466;-1.016;2023-02-16T07:28:46;100277.13;;;7.86;80.40
65718;BME280;52445;52.466;-1.016;2023-02-16T07:31:14;100268.53;;;7.87;79.76
65718;BME280;52445;52.466;-1.016;2023-02-16T07:33:42;100276.28;;;7.86;80.55
65718;BME280;52445;52.466;-1.016;2023-02-16T07:36:10;100273.75;;;7.90;79.68
65718;BME280;52445;52.466;-1.016;2023-02-16T07:38:38;100278.94;;;7.93;79.50
65718;BME280;52445;52.466;-1.016;2023-02-16T07:41:07;100278.09;;;7.94;80.11
65718;BME280;52445;52.466;-1.016;2023-02-16T07:43:37;100272.09;;;7.97;80.81
65718;BME280;52445;52.466;-1.016;2023-02-16T07:46:04;100284.19;;;8.03;80.49
65718;BME280;52445;52.466;-1.016;2023-02-16T07:48:31;100279.91;;;8.03;79.82
65718;BME280;52445;52.466;-1.016;2023-02-16T07:50:57;100275.66;;;8.05;79.78
65718;BME280;52445;52.466;-1.016;2023-02-16T07:53:24;100279.13;;;8.10;80.47
65718;BME280;52445;52.466;-1.016;2023-02-16T07:55:51;100280.09;;;8.19;80.21
65718;BME280;52445;52.466;-1.016;2023-02-16T07:58:18;100279.25;;;8.21;79.30
65718;BME280;52445;52.466;-1.016;2023-02-16T08:01:08;100268.88;;;8.18;79.62
65718;BME280;52445;52.466;-1.016;2023-02-16T08:03:34;100272.44;;;8.27;79.99
65718;BME280;52445;52.466;-1.016;2023-02-16T08:06:02;100275.84;;;8.26;80.14
65718;BME280;52445;52.466;-1.016;2023-02-16T08:08:29;100273.34;;;8.32;79.68
65718;BME280;52445;52.466;-1.016;2023-02-16T08:10:56;100255.28;;;8.33;80.01
65718;BME280;52445;52.466;-1.016;2023-02-16T08:13:23;100265.63;;;8.35;80.09
65718;BME280;52445;52.466;-1.016;2023-02-16T08:15:49;100269.94;;;8.36;80.51
65718;BME280;52445;52.466;-1.016;2023-02-16T08:18:16;100263.94;;;8.39;79.92
65718;BME280;52445;52.466;-1.016;2023-02-16T08:20:43;100261.41;;;8.43;80.38
65718;BME280;52445;52.466;-1.016;2023-02-16T08:23:29;100264.00;;;8.43;80.28
65718;BME280;52445;52.466;-1.016;2023-02-16T08:25:57;100266.59;;;8.45;80.53
65718;BME280;52445;52.466;-1.016;2023-02-16T08:28:24;100265.72;;;8.46;80.25
65718;BME280;52445;52.466;-1.016;2023-02-16T08:30:54;100274.34;;;8.49;80.02
65718;BME280;52445;52.466;-1.016;2023-02-16T08:33:21;100275.34;;;8.56;80.56
65718;BME280;52445;52.466;-1.016;2023-02-16T08:35:47;100282.19;;;8.56;80.50
65718;BME280;52445;52.466;-1.016;2023-02-16T08:38:14;100278.81;;;8.61;79.57
65718;BME280;52445;52.466;-1.016;2023-02-16T08:40:47;100277.97;;;8.64;80.57
65718;BME280;52445;52.466;-1.016;2023-02-16T08:43:14;100278.00;;;8.67;80.26
65718;BME280;52445;52.466;-1.016;2023-02-16T08:45:45;100295.22;;;8.68;80.69
65718;BME280;52445;52.466;-1.016;2023-02-16T08:48:13;100290.09;;;8.71;80.33
65718;BME280;52445;52.466;-1.016;2023-02-16T08:50:47;100286.63;;;8.72;80.61
65718;BME280;52445;52.466;-1.016;2023-02-16T08:53:22;100293.56;;;8.73;80.36
65718;BME280;52445;52.466;-1.016;2023-02-16T08:55:52;100288.41;;;8.77;80.10
65718;BME280;52445;52.466;-1.016;2023-02-16T08:58:19;100284.13;;;8.80;80.04
65718;BME280;52445;52.466;-1.016;2023-02-16T09:00:45;100288.47;;;8.83;80.30
65718;BME280;52445;52.466;-1.016;2023-02-16T09:03:12;100288.50;;;8.86;80.39
65718;BME280;52445;52.466;-1.016;2023-02-16T09:05:39;100282.47;;;8.89;80.18
65718;BME280;52445;52.466;-1.016;2023-02-16T09:08:05;100285.06;;;8.90;80.41
65718;BME280;52445;52.466;-1.016;2023-02-16T09:10:32;100285.09;;;8.93;80.26
65718;BME280;52445;52.466;-1.016;2023-02-16T09:12:58;100277.41;;;9.01;80.30
65718;BME280;52445;52.466;-1.016;2023-02-16T09:15:25;100280.00;;;9.03;80.67
65718;BME280;52445;52.466;-1.016;2023-02-16T09:17:52;100286.09;;;9.12;80.02
65718;BME280;52445;52.466;-1.016;2023-02-16T09:20:18;100286.09;;;9.14;80.72
65718;BME280;52445;52.466;-1.016;2023-02-16T09:22:45;100294.75;;;9.21;80.32
65718;BME280;52445;52.466;-1.016;2023-02-16T09:25:13;100297.41;;;9.27;80.18
65718;BME280;52445;52.466;-1.016;2023-02-16T09:27:41;100291.41;;;9.33;80.38
65718;BME280;52445;52.466;-1.016;2023-02-16T09:30:08;100293.16;;;9.37;80.01
65718;BME280;52445;52.466;-1.016;2023-02-16T09:32:35;100295.75;;;9.40;79.68
65718;BME280;52445;52.466;-1.016;2023-02-16T09:35:02;100286.31;;;9.45;79.81
65718;BME280;52445;52.466;-1.016;2023-02-16T09:37:31;100279.44;;;9.52;79.81
65718;BME280;52445;52.466;-1.016;2023-02-16T09:39:57;100276.00;;;9.56;80.20
65718;BME280;52445;52.466;-1.016;2023-02-16T09:42:31;100280.38;;;9.65;79.51
65718;BME280;52445;52.466;-1.016;2023-02-16T09:45:16;100284.72;;;9.71;80.24
65718;BME280;52445;52.466;-1.016;2023-02-16T09:47:46;100269.25;;;9.85;80.12
65718;BME280;52445;52.466;-1.016;2023-02-16T09:50:18;100273.63;;;9.98;79.43
65718;BME280;52445;52.466;-1.016;2023-02-16T09:53:12;100285.72;;;10.06;79.53
65718;BME280;52445;52.466;-1.016;2023-02-16T09:55:55;100284.88;;;10.10;79.92
65718;BME280;52445;52.466;-1.016;2023-02-16T09:58:31;100294.38;;;10.17;79.72
65718;BME280;52445;52.466;-1.016;2023-02-16T10:09:19;100297.94;;;10.50;79.98
65718;BME280;52445;52.466;-1.016;2023-02-16T10:11:54;100299.69;;;10.61;79.40
65718;BME280;52445;52.466;-1.016;2023-02-16T10:20:30;100316.97;;;10.90;77.87
65718;BME280;52445;52.466;-1.016;2023-02-16T10:23:13;100319.56;;;10.93;78.12
65718;BME280;52445;52.466;-1.016;2023-02-16T10:26:11;100308.31;;;10.97;78.14
65718;BME280;52445;52.466;-1.016;2023-02-16T10:34:04;100304.84;;;11.01;78.32
65718;BME280;52445;52.466;-1.016;2023-02-16T10:42:01;100299.66;;;11.14;77.68
65718;BME280;52445;52.466;-1.016;2023-02-16T10:44:35;100302.25;;;11.20;77.79
65718;BME280;52445;52.466;-1.016;2023-02-16T10:47:19;100307.44;;;11.23;77.67
65718;BME280;52445;52.466;-1.016;2023-02-16T10:49:50;100301.38;;;11.27;77.62
65718;BME280;52445;52.466;-1.016;2023-02-16T10:52:18;100303.09;;;11.28;77.94
65718;BME280;52445;52.466;-1.016;2023-02-16T10:54:48;100306.56;;;11.27;78.54
65718;BME280;52445;52.466;-1.016;2023-02-16T10:57:25;100306.56;;;11.24;77.56
65718;BME280;52445;52.466;-1.016;2023-02-16T10:59:52;100303.97;;;11.29;77.34
65718;BME280;52445;52.466;-1.016;2023-02-16T11:02:34;100310.00;;;11.29;77.77
65718;BME280;52445;52.466;-1.016;2023-02-16T11:05:02;100320.38;;;11.36;77.03
65718;BME280;52445;52.466;-1.016;2023-02-16T11:07:53;100309.97;;;11.45;77.76
65718;BME280;52445;52.466;-1.016;2023-02-16T11:15:57;100316.88;;;11.65;78.20
65718;BME280;52445;52.466;-1.016;2023-02-16T11:21:00;100303.03;;;11.66;76.63
65718;BME280;52445;52.466;-1.016;2023-02-16T11:28:48;100296.97;;;11.72;77.45
65718;BME280;52445;52.466;-1.016;2023-02-16T11:31:35;100294.38;;;11.70;76.96
65718;BME280;52445;52.466;-1.016;2023-02-16T11:34:06;100279.63;;;11.74;76.50
65718;BME280;52445;52.466;-1.016;2023-02-16T11:41:53;100275.28;;;11.83;77.84
65718;BME280;52445;52.466;-1.016;2023-02-16T11:46:58;100279.56;;;11.94;77.45
65718;BME280;52445;52.466;-1.016;2023-02-16T11:49:32;100269.19;;;11.95;76.75
65718;BME280;52445;52.466;-1.016;2023-02-16T11:51:59;100270.00;;;11.99;76.93
65718;BME280;52445;52.466;-1.016;2023-02-16T11:54:26;100268.28;;;12.01;77.76
65718;BME280;52445;52.466;-1.016;2023-02-16T11:57:04;100265.69;;;12.06;76.53
65718;BME280;52445;52.466;-1.016;2023-02-16T11:59:35;100277.78;;;12.12;77.67
65718;BME280;52445;52.466;-1.016;2023-02-16T12:13:48;100283.63;;;12.45;75.63
65718;BME280;52445;52.466;-1.016;2023-02-16T12:19:16;100297.53;;;12.38;75.98
65718;BME280;52445;52.466;-1.016;2023-02-16T12:21:50;100290.59;;;12.43;76.95
65718;BME280;52445;52.466;-1.016;2023-02-16T12:27:00;100287.06;;;12.50;76.07
65718;BME280;52445;52.466;-1.016;2023-02-16T12:35:31;100308.69;;;12.57;75.80
65718;BME280;52445;52.466;-1.016;2023-02-16T12:41:34;100313.88;;;12.58;75.82
65718;BME280;52445;52.466;-1.016;2023-02-16T12:44:04;100312.97;;;12.63;75.25
65718;BME280;52445;52.466;-1.016;2023-02-16T12:46:41;100312.97;;;12.66;76.09
65718;BME280;52445;52.466;-1.016;2023-02-16T12:51:59;100299.94;;;12.67;75.13
65718;BME280;52445;52.466;-1.016;2023-02-16T12:54:37;100301.66;;;12.70;76.32
65718;BME280;52445;52.466;-1.016;2023-02-16T12:57:10;100313.78;;;12.71;75.19
65718;BME280;52445;52.466;-1.016;2023-02-16T12:59:59;100312.91;;;12.67;75.11
65718;BME280;52445;52.466;-1.016;2023-02-16T13:02:34;100319.81;;;12.73;75.11
65718;BME280;52445;52.466;-1.016;2023-02-16T13:05:08;100316.34;;;12.74;75.67
65718;BME280;52445;52.466;-1.016;2023-02-16T13:07:41;100316.34;;;12.76;75.66
65718;BME280;52445;52.466;-1.016;2023-02-16T13:10:32;100307.69;;;12.73;75.23
65718;BME280;52445;52.466;-1.016;2023-02-16T13:13:17;100299.00;;;12.75;74.89
65718;BME280;52445;52.466;-1.016;2023-02-16T13:18:31;100308.50;;;12.82;75.16
65718;BME280;52445;52.466;-1.016;2023-02-16T13:24:03;100290.31;;;12.79;75.26
65718;BME280;52445;52.466;-1.016;2023-02-16T13:26:51;100297.25;;;12.80;75.12
65718;BME280;52445;52.466;-1.016;2023-02-16T13:32:38;100288.56;;;12.82;74.36
65718;BME280;52445;52.466;-1.016;2023-02-16T13:43:25;100276.19;;;13.09;74.57
65718;BME280;52445;52.466;-1.016;2023-02-16T13:45:55;100271.78;;;13.18;75.50
65718;BME280;52445;52.466;-1.016;2023-02-16T13:48:27;100277.81;;;13.20;75.59
65718;BME280;52445;52.466;-1.016;2023-02-16T13:51:00;100270.84;;;13.23;74.68
65718;BME280;52445;52.466;-1.016;2023-02-16T13:53:35;100278.66;;;13.25;74.07
65718;BME280;52445;52.466;-1.016;2023-02-16T13:58:59;100269.66;;;13.56;73.43
65718;BME280;52445;52.466;-1.016;2023-02-16T14:01:46;100262.03;;;13.39;74.62
65718;BME280;52445;52.466;-1.016;2023-02-16T14:09:52;100258.66;;;13.30;74.04
65718;BME280;52445;52.466;-1.016;2023-02-16T14:12:24;100269.06;;;13.30;73.59
65718;BME280;52445;52.466;-1.016;2023-02-16T14:14:56;100262.13;;;13.29;73.61
65718;BME280;52445;52.466;-1.016;2023-02-16T14:17:26;100267.34;;;13.29;74.06
65718;BME280;52445;52.466;-1.016;2023-02-16T14:27:59;100256.97;;;13.23;73.49
65718;BME280;52445;52.466;-1.016;2023-02-16T14:33:18;100257.91;;;13.19;74.65
65718;BME280;52445;52.466;-1.016;2023-02-16T14:36:11;100260.50;;;13.19;73.61
65718;BME280;52445;52.466;-1.016;2023-02-16T14:41:33;100272.59;;;13.20;73.81
65718;BME280;52445;52.466;-1.016;2023-02-16T14:47:03;100287.38;;;13.19;74.27
65718;BME280;52445;52.466;-1.016;2023-02-16T14:57:50;100275.16;;;13.28;73.44
65718;BME280;52445;52.466;-1.016;2023-02-16T15:05:34;100266.41;;;13.35;73.54
65718;BME280;52445;52.466;-1.016;2023-02-16T15:08:15;100260.34;;;13.31;73.59
65718;BME280;52445;52.466;-1.016;2023-02-16T15:10:44;100271.63;;;13.33;73.15
65718;BME280;52445;52.466;-1.016;2023-02-16T15:13:20;100261.25;;;13.30;74.00
65718;BME280;52445;52.466;-1.016;2023-02-16T15:15:51;100260.34;;;13.31;73.99
65718;BME280;52445;52.466;-1.016;2023-02-16T15:18:21;100259.53;;;13.28;73.05
65718;BME280;52445;52.466;-1.016;2023-02-16T15:20:52;100262.16;;;13.26;73.96
65718;BME280;52445;52.466;-1.016;2023-02-16T15:23:21;100269.97;;;13.26;73.42
65718;BME280;52445;52.466;-1.016;2023-02-16T15:25:59;100281.25;;;13.25;73.77
65718;BME280;52445;52.466;-1.016;2023-02-16T15:28:29;100279.47;;;13.29;73.05
65718;BME280;52445;52.466;-1.016;2023-02-16T15:31:00;100284.66;;;13.29;73.31
65718;BME280;52445;52.466;-1.016;2023-02-16T15:36:13;100277.75;;;13.29;73.19
65718;BME280;52445;52.466;-1.016;2023-02-16T15:38:52;100275.97;;;13.31;73.14
65718;BME280;52445;52.466;-1.016;2023-02-16T15:41:37;100278.63;;;13.27;73.56
65718;BME280;52445;52.466;-1.016;2023-02-16T15:44:12;100280.31;;;13.31;73.47
65718;BME280;52445;52.466;-1.016;2023-02-16T15:46:41;100283.78;;;13.30;73.15
65718;BME280;52445;52.466;-1.016;2023-02-16T15:49:18;100263.84;;;13.29;73.51
65718;BME280;52445;52.466;-1.016;2023-02-16T15:51:47;100265.63;;;13.28;73.53
65718;BME280;52445;52.466;-1.016;2023-02-16T15:54:21;100272.56;;;13.26;73.29
65718;BME280;52445;52.466;-1.016;2023-02-16T15:56:52;100269.06;;;13.27;72.84
65718;BME280;52445;52.466;-1.016;2023-02-16T16:04:42;100269.97;;;13.26;73.68